FLM weather

Filadelfia Airport
Filadelfia, Boquerón Department, Paraguay

Public forecast

Using degrees Celsius for public forecast. Weather courtesy of forecast.io.

Closest aviation weather report (METAR) to Filadelfia Airport

Report is more than 6 hours old.

Closest report is Dr. Luis Maria Argaña International Airport, 36.6 nm (67.8 km) WNW. Retrieved 2020/07/13 21:00 UTC (22 days ago):

SGME 132100Z 15005KT 9999 SCT033 27/19 Q1014

Closest aviation forecast (TAF) to Filadelfia Airport

Closest forecast is Teniente Col Carmelo Peralta Airport, 159.1 nm (294.7 km) ESE. Retrieved 2020/08/04 06:00 UTC (6 hours ago):

TAF SGCO 040500Z 0406/0506 05010KT CAVOK TX36/0419Z TN20/0409Z